sensor_id;sensor_type;location;lat;lon;timestamp;pressure;altitude;pressure_sealevel;temperature;humidity
71107;BME280;58763;47.982;11.516;2022-09-03T00:02:23;93901.16;;;15.52;60.39
71107;BME280;58763;47.982;11.516;2022-09-03T00:05:23;93905.16;;;15.37;60.97
71107;BME280;58763;47.982;11.516;2022-09-03T00:08:05;93904.97;;;15.42;60.32
71107;BME280;58763;47.982;11.516;2022-09-03T00:10:44;93904.00;;;15.38;60.16
71107;BME280;58763;47.982;11.516;2022-09-03T00:13:16;93899.84;;;15.32;59.36
71107;BME280;58763;47.982;11.516;2022-09-03T00:15:44;93895.19;;;15.41;59.93
71107;BME280;58763;47.982;11.516;2022-09-03T00:18:14;93890.56;;;15.42;59.71
71107;BME280;58763;47.982;11.516;2022-09-03T00:20:53;93897.78;;;15.38;59.84
71107;BME280;58763;47.982;11.516;2022-09-03T00:23:25;93893.59;;;15.40;60.26
71107;BME280;58763;47.982;11.516;2022-09-03T00:26:13;93894.88;;;15.43;60.14
71107;BME280;58763;47.982;11.516;2022-09-03T00:28:48;93901.00;;;15.48;60.25
71107;BME280;58763;47.982;11.516;2022-09-03T00:33:45;93901.28;;;15.38;60.20
71107;BME280;58763;47.982;11.516;2022-09-03T00:36:42;93893.59;;;15.32;60.12
71107;BME280;58763;47.982;11.516;2022-09-03T00:39:09;93899.69;;;15.20;59.82
71107;BME280;58763;47.982;11.516;2022-09-03T00:41:39;93913.00;;;15.21;60.02
71107;BME280;58763;47.982;11.516;2022-09-03T00:44:20;93908.81;;;15.15;60.86
71107;BME280;58763;47.982;11.516;2022-09-03T00:46:59;93906.44;;;15.14;61.09
71107;BME280;58763;47.982;11.516;2022-09-03T00:49:45;93898.75;;;15.16;61.49
71107;BME280;58763;47.982;11.516;2022-09-03T00:55:12;93902.09;;;15.13;61.98
71107;BME280;58763;47.982;11.516;2022-09-03T01:00:43;93909.63;;;15.16;61.88
71107;BME280;58763;47.982;11.516;2022-09-03T01:03:14;93899.84;;;15.06;61.75
71107;BME280;58763;47.982;11.516;2022-09-03T01:06:16;93907.69;;;15.08;61.92
71107;BME280;58763;47.982;11.516;2022-09-03T01:17:15;93901.63;;;15.02;61.05
71107;BME280;58763;47.982;11.516;2022-09-03T01:28:15;93887.97;;;14.85;61.82
71107;BME280;58763;47.982;11.516;2022-09-03T01:30:51;93897.75;;;14.95;61.83
71107;BME280;58763;47.982;11.516;2022-09-03T01:33:40;93892.31;;;14.86;62.24
71107;BME280;58763;47.982;11.516;2022-09-03T01:39:05;93886.41;;;14.93;62.07
71107;BME280;58763;47.982;11.516;2022-09-03T01:45:02;93892.00;;;15.05;62.57
71107;BME280;58763;47.982;11.516;2022-09-03T01:47:51;93889.28;;;14.88;62.36
71107;BME280;58763;47.982;11.516;2022-09-03T01:59:10;93881.41;;;14.78;62.89
71107;BME280;58763;47.982;11.516;2022-09-03T02:01:49;93880.44;;;14.74;62.82
71107;BME280;58763;47.982;11.516;2022-09-03T02:04:20;93873.25;;;14.78;62.84
71107;BME280;58763;47.982;11.516;2022-09-03T02:06:49;93869.56;;;14.82;62.81
71107;BME280;58763;47.982;11.516;2022-09-03T02:09:16;93867.78;;;14.78;63.09
71107;BME280;58763;47.982;11.516;2022-09-03T02:11:43;93871.94;;;14.75;63.23
71107;BME280;58763;47.982;11.516;2022-09-03T02:14:11;93875.34;;;14.81;62.75
71107;BME280;58763;47.982;11.516;2022-09-03T02:16:37;93879.97;;;14.80;63.42
71107;BME280;58763;47.982;11.516;2022-09-03T02:19:10;93881.88;;;14.80;63.80
71107;BME280;58763;47.982;11.516;2022-09-03T02:21:38;93881.06;;;14.71;63.65
71107;BME280;58763;47.982;11.516;2022-09-03T02:24:06;93873.38;;;14.73;63.65
71107;BME280;58763;47.982;11.516;2022-09-03T02:26:32;93883.47;;;14.64;64.09
71107;BME280;58763;47.982;11.516;2022-09-03T02:29:00;93882.66;;;14.54;63.66
71107;BME280;58763;47.982;11.516;2022-09-03T02:31:26;93880.72;;;14.46;63.85
71107;BME280;58763;47.982;11.516;2022-09-03T02:33:54;93881.34;;;14.43;63.62
71107;BME280;58763;47.982;11.516;2022-09-03T02:36:24;93880.53;;;14.34;63.73
71107;BME280;58763;47.982;11.516;2022-09-03T02:38:51;93886.31;;;14.41;63.75
71107;BME280;58763;47.982;11.516;2022-09-03T02:41:17;93881.84;;;14.45;63.92
71107;BME280;58763;47.982;11.516;2022-09-03T02:46:43;93884.22;;;14.38;63.59
71107;BME280;58763;47.982;11.516;2022-09-03T02:49:09;93885.25;;;14.20;64.48
71107;BME280;58763;47.982;11.516;2022-09-03T02:51:38;93879.34;;;14.27;64.62
71107;BME280;58763;47.982;11.516;2022-09-03T02:54:04;93883.16;;;14.17;64.43
71107;BME280;58763;47.982;11.516;2022-09-03T02:56:30;93877.38;;;14.10;64.57
71107;BME280;58763;47.982;11.516;2022-09-03T02:58:55;93884.78;;;14.18;64.96
71107;BME280;58763;47.982;11.516;2022-09-03T03:01:21;93885.88;;;14.17;64.89
71107;BME280;58763;47.982;11.516;2022-09-03T03:03:47;93885.94;;;14.26;65.03
71107;BME280;58763;47.982;11.516;2022-09-03T03:06:13;93889.13;;;14.28;65.00
71107;BME280;58763;47.982;11.516;2022-09-03T03:08:38;93889.63;;;14.30;65.19
71107;BME280;58763;47.982;11.516;2022-09-03T03:11:04;93880.75;;;14.16;65.18
71107;BME280;58763;47.982;11.516;2022-09-03T03:13:30;93889.03;;;14.02;65.84
71107;BME280;58763;47.982;11.516;2022-09-03T03:15:57;93899.06;;;13.93;66.09
71107;BME280;58763;47.982;11.516;2022-09-03T03:18:23;93903.09;;;14.04;65.54
71107;BME280;58763;47.982;11.516;2022-09-03T03:20:49;93898.28;;;14.01;65.58
71107;BME280;58763;47.982;11.516;2022-09-03T03:23:14;93901.34;;;14.08;65.48
71107;BME280;58763;47.982;11.516;2022-09-03T03:25:39;93898.88;;;13.90;66.01
71107;BME280;58763;47.982;11.516;2022-09-03T03:28:05;93899.81;;;13.85;65.99
71107;BME280;58763;47.982;11.516;2022-09-03T03:30:32;93907.34;;;13.88;65.85
71107;BME280;58763;47.982;11.516;2022-09-03T03:32:58;93908.06;;;14.02;65.31
71107;BME280;58763;47.982;11.516;2022-09-03T03:35:24;93903.00;;;13.87;65.75
71107;BME280;58763;47.982;11.516;2022-09-03T03:37:49;93902.16;;;13.78;66.18
71107;BME280;58763;47.982;11.516;2022-09-03T03:40:15;93905.81;;;13.73;66.38
71107;BME280;58763;47.982;11.516;2022-09-03T03:42:41;93898.63;;;13.69;66.38
71107;BME280;58763;47.982;11.516;2022-09-03T03:45:07;93902.44;;;13.68;66.52
71107;BME280;58763;47.982;11.516;2022-09-03T03:47:35;93900.72;;;13.72;66.16
71107;BME280;58763;47.982;11.516;2022-09-03T03:50:01;93898.28;;;13.70;66.23
71107;BME280;58763;47.982;11.516;2022-09-03T03:52:27;93895.75;;;13.74;66.29
71107;BME280;58763;47.982;11.516;2022-09-03T03:54:52;93894.16;;;13.73;66.82
71107;BME280;58763;47.982;11.516;2022-09-03T03:57:18;93893.66;;;13.71;66.75
71107;BME280;58763;47.982;11.516;2022-09-03T03:59:45;93895.75;;;13.74;66.73
71107;BME280;58763;47.982;11.516;2022-09-03T04:02:11;93894.75;;;13.70;67.26
71107;BME280;58763;47.982;11.516;2022-09-03T04:04:37;93899.72;;;13.68;67.54
71107;BME280;58763;47.982;11.516;2022-09-03T04:07:02;93895.91;;;13.69;67.49
71107;BME280;58763;47.982;11.516;2022-09-03T04:09:28;93889.31;;;13.70;67.29
71107;BME280;58763;47.982;11.516;2022-09-03T04:11:54;93892.59;;;13.80;67.30
71107;BME280;58763;47.982;11.516;2022-09-03T04:14:22;93889.56;;;13.82;67.51
71107;BME280;58763;47.982;11.516;2022-09-03T04:16:48;93895.44;;;13.75;67.66
71107;BME280;58763;47.982;11.516;2022-09-03T04:19:16;93893.69;;;13.79;67.34
71107;BME280;58763;47.982;11.516;2022-09-03T04:21:42;93893.41;;;13.81;67.06
71107;BME280;58763;47.982;11.516;2022-09-03T04:24:07;93885.50;;;13.71;67.01
71107;BME280;58763;47.982;11.516;2022-09-03T04:26:34;93888.56;;;13.69;66.38
71107;BME280;58763;47.982;11.516;2022-09-03T04:29:04;93894.28;;;13.68;66.59
71107;BME280;58763;47.982;11.516;2022-09-03T04:31:31;93896.38;;;13.71;66.58
71107;BME280;58763;47.982;11.516;2022-09-03T04:33:56;93896.41;;;13.79;66.99
71107;BME280;58763;47.982;11.516;2022-09-03T04:36:24;93892.75;;;13.84;67.00
71107;BME280;58763;47.982;11.516;2022-09-03T04:38:52;93900.78;;;13.89;66.66
71107;BME280;58763;47.982;11.516;2022-09-03T04:41:21;93891.53;;;13.90;66.94
71107;BME280;58763;47.982;11.516;2022-09-03T04:43:50;93899.06;;;13.93;67.57
71107;BME280;58763;47.982;11.516;2022-09-03T04:46:16;93901.69;;;13.76;67.99
71107;BME280;58763;47.982;11.516;2022-09-03T04:48:43;93902.75;;;13.66;67.78
71107;BME280;58763;47.982;11.516;2022-09-03T04:51:09;93910.44;;;13.73;67.60
71107;BME280;58763;47.982;11.516;2022-09-03T04:53:38;93916.69;;;13.73;68.27
71107;BME280;58763;47.982;11.516;2022-09-03T04:56:11;93915.06;;;13.72;68.80
71107;BME280;58763;47.982;11.516;2022-09-03T04:58:37;93917.94;;;13.67;69.61
71107;BME280;58763;47.982;11.516;2022-09-03T05:01:16;93920.47;;;13.64;70.39
71107;BME280;58763;47.982;11.516;2022-09-03T05:03:42;93917.50;;;13.74;69.99
71107;BME280;58763;47.982;11.516;2022-09-03T05:06:07;93921.94;;;13.70;69.88
71107;BME280;58763;47.982;11.516;2022-09-03T05:08:34;93909.84;;;13.76;69.96
71107;BME280;58763;47.982;11.516;2022-09-03T05:11:03;93914.22;;;13.85;69.92
71107;BME280;58763;47.982;11.516;2022-09-03T05:13:28;93917.22;;;13.84;70.34
71107;BME280;58763;47.982;11.516;2022-09-03T05:16:02;93921.22;;;13.86;70.27
71107;BME280;58763;47.982;11.516;2022-09-03T05:18:28;93927.94;;;14.11;70.03
71107;BME280;58763;47.982;11.516;2022-09-03T05:21:09;93939.09;;;14.10;71.05
71107;BME280;58763;47.982;11.516;2022-09-03T05:23:35;93957.72;;;14.16;71.41
71107;BME280;58763;47.982;11.516;2022-09-03T05:26:03;93959.47;;;14.21;72.61
71107;BME280;58763;47.982;11.516;2022-09-03T05:28:29;93964.38;;;14.10;73.72
71107;BME280;58763;47.982;11.516;2022-09-03T05:31:03;93985.06;;;13.67;76.43
71107;BME280;58763;47.982;11.516;2022-09-03T05:33:32;93985.38;;;13.43;77.01
71107;BME280;58763;47.982;11.516;2022-09-03T05:36:07;93984.00;;;13.54;76.87
71107;BME280;58763;47.982;11.516;2022-09-03T05:38:33;93987.22;;;13.56;77.43
71107;BME280;58763;47.982;11.516;2022-09-03T05:41:00;93985.56;;;13.69;76.69
71107;BME280;58763;47.982;11.516;2022-09-03T05:43:27;93987.72;;;13.80;75.91
71107;BME280;58763;47.982;11.516;2022-09-03T05:45:59;93968.97;;;14.01;75.26
71107;BME280;58763;47.982;11.516;2022-09-03T05:48:26;93973.97;;;14.08;75.09
71107;BME280;58763;47.982;11.516;2022-09-03T05:51:02;93983.03;;;14.25;74.66
71107;BME280;58763;47.982;11.516;2022-09-03T05:53:29;93977.53;;;14.47;74.07
71107;BME280;58763;47.982;11.516;2022-09-03T05:56:04;93971.00;;;14.48;74.89
71107;BME280;58763;47.982;11.516;2022-09-03T05:58:42;93984.63;;;14.57;74.89
71107;BME280;58763;47.982;11.516;2022-09-03T06:01:11;93983.72;;;14.70;75.26
71107;BME280;58763;47.982;11.516;2022-09-03T06:03:37;93967.88;;;14.81;74.93
71107;BME280;58763;47.982;11.516;2022-09-03T06:06:03;93973.34;;;14.89;74.87
71107;BME280;58763;47.982;11.516;2022-09-03T06:08:29;93980.09;;;15.00;74.20
71107;BME280;58763;47.982;11.516;2022-09-03T06:10:59;93975.16;;;15.02;74.29
71107;BME280;58763;47.982;11.516;2022-09-03T06:13:24;93975.00;;;15.07;74.20
71107;BME280;58763;47.982;11.516;2022-09-03T06:15:55;93976.75;;;15.12;74.55
71107;BME280;58763;47.982;11.516;2022-09-03T06:18:21;93983.19;;;15.33;73.62
71107;BME280;58763;47.982;11.516;2022-09-03T06:20:57;93995.41;;;15.53;72.60
71107;BME280;58763;47.982;11.516;2022-09-03T06:23:24;94000.69;;;15.58;72.83
71107;BME280;58763;47.982;11.516;2022-09-03T06:26:19;93998.78;;;15.58;73.97
71107;BME280;58763;47.982;11.516;2022-09-03T06:28:45;94006.63;;;15.68;73.66
71107;BME280;58763;47.982;11.516;2022-09-03T06:31:17;94013.22;;;15.67;72.75
71107;BME280;58763;47.982;11.516;2022-09-03T06:33:44;94008.56;;;15.68;72.81
71107;BME280;58763;47.982;11.516;2022-09-03T06:36:14;94018.97;;;15.74;72.57
71107;BME280;58763;47.982;11.516;2022-09-03T06:38:41;94018.00;;;15.79;71.86
71107;BME280;58763;47.982;11.516;2022-09-03T06:41:15;94020.41;;;15.89;71.41
71107;BME280;58763;47.982;11.516;2022-09-03T06:43:45;94026.66;;;15.89;71.28
71107;BME280;58763;47.982;11.516;2022-09-03T06:46:13;94025.56;;;15.82;71.81
71107;BME280;58763;47.982;11.516;2022-09-03T06:48:40;94031.66;;;15.96;71.73
71107;BME280;58763;47.982;11.516;2022-09-03T06:51:17;94032.75;;;15.95;72.16
71107;BME280;58763;47.982;11.516;2022-09-03T06:53:53;94034.50;;;16.00;72.32
71107;BME280;58763;47.982;11.516;2022-09-03T06:56:21;94036.94;;;15.93;72.47
71107;BME280;58763;47.982;11.516;2022-09-03T06:58:52;94032.63;;;15.92;72.52
71107;BME280;58763;47.982;11.516;2022-09-03T07:01:26;94035.00;;;16.02;72.91
71107;BME280;58763;47.982;11.516;2022-09-03T07:03:57;94031.47;;;16.10;72.77
71107;BME280;58763;47.982;11.516;2022-09-03T07:06:24;94019.44;;;16.02;72.23
71107;BME280;58763;47.982;11.516;2022-09-03T07:08:51;94032.44;;;16.05;72.14
71107;BME280;58763;47.982;11.516;2022-09-03T07:11:20;94047.03;;;16.09;73.53
71107;BME280;58763;47.982;11.516;2022-09-03T07:13:49;94040.63;;;16.05;73.25
71107;BME280;58763;47.982;11.516;2022-09-03T07:16:18;94037.41;;;16.03;73.72
71107;BME280;58763;47.982;11.516;2022-09-03T07:18:44;94043.50;;;16.17;73.59
71107;BME280;58763;47.982;11.516;2022-09-03T07:21:22;94051.97;;;16.16;75.04
71107;BME280;58763;47.982;11.516;2022-09-03T07:23:48;94052.31;;;16.14;75.13
71107;BME280;58763;47.982;11.516;2022-09-03T07:26:27;94045.91;;;16.10;74.54
71107;BME280;58763;47.982;11.516;2022-09-03T07:28:53;94044.78;;;16.03;75.55
71107;BME280;58763;47.982;11.516;2022-09-03T07:31:28;94051.19;;;16.07;75.56
71107;BME280;58763;47.982;11.516;2022-09-03T07:34:00;94040.91;;;16.21;75.15
71107;BME280;58763;47.982;11.516;2022-09-03T07:36:28;94044.28;;;16.18;75.45
71107;BME280;58763;47.982;11.516;2022-09-03T07:38:56;94051.69;;;16.17;76.00
71107;BME280;58763;47.982;11.516;2022-09-03T07:41:22;94046.53;;;16.16;76.31
71107;BME280;58763;47.982;11.516;2022-09-03T07:43:49;94049.44;;;16.19;76.58
71107;BME280;58763;47.982;11.516;2022-09-03T07:46:17;94056.00;;;16.18;76.47
71107;BME280;58763;47.982;11.516;2022-09-03T07:48:54;94058.38;;;16.20;76.80
71107;BME280;58763;47.982;11.516;2022-09-03T07:51:22;94054.88;;;16.19;77.09
71107;BME280;58763;47.982;11.516;2022-09-03T07:53:53;94038.81;;;16.18;76.63
71107;BME280;58763;47.982;11.516;2022-09-03T07:56:19;94038.97;;;16.21;76.71
71107;BME280;58763;47.982;11.516;2022-09-03T07:58:44;94034.78;;;16.32;76.75
71107;BME280;58763;47.982;11.516;2022-09-03T08:01:15;94042.16;;;16.40;75.84
71107;BME280;58763;47.982;11.516;2022-09-03T08:03:45;94052.44;;;16.52;75.68
71107;BME280;58763;47.982;11.516;2022-09-03T08:06:12;94058.16;;;16.50;76.65
71107;BME280;58763;47.982;11.516;2022-09-03T08:08:38;94055.16;;;16.52;76.65
71107;BME280;58763;47.982;11.516;2022-09-03T08:11:05;94053.22;;;16.61;76.89
71107;BME280;58763;47.982;11.516;2022-09-03T08:13:38;94057.69;;;16.48;76.59
71107;BME280;58763;47.982;11.516;2022-09-03T08:16:06;94062.03;;;16.41;76.04
71107;BME280;58763;47.982;11.516;2022-09-03T08:18:33;94054.66;;;16.41;76.69
71107;BME280;58763;47.982;11.516;2022-09-03T08:21:13;94062.09;;;16.24;76.53
71107;BME280;58763;47.982;11.516;2022-09-03T08:23:41;94066.25;;;16.13;77.03
71107;BME280;58763;47.982;11.516;2022-09-03T08:26:07;94060.00;;;16.21;77.39
71107;BME280;58763;47.982;11.516;2022-09-03T08:28:34;94061.28;;;16.23;77.87
71107;BME280;58763;47.982;11.516;2022-09-03T08:31:17;94053.25;;;16.18;78.04
71107;BME280;58763;47.982;11.516;2022-09-03T08:33:45;94052.28;;;16.23;78.22
71107;BME280;58763;47.982;11.516;2022-09-03T08:36:16;94053.25;;;16.27;78.29
71107;BME280;58763;47.982;11.516;2022-09-03T08:38:44;94051.94;;;16.41;78.87
71107;BME280;58763;47.982;11.516;2022-09-03T08:41:14;94052.91;;;16.54;79.26
71107;BME280;58763;47.982;11.516;2022-09-03T08:49:26;94058.75;;;16.82;76.88
71107;BME280;58763;47.982;11.516;2022-09-03T08:51:57;94058.19;;;16.97;75.96
71107;BME280;58763;47.982;11.516;2022-09-03T08:54:28;94061.50;;;17.11;76.52
71107;BME280;58763;47.982;11.516;2022-09-03T08:56:54;94063.06;;;17.20;75.68
71107;BME280;58763;47.982;11.516;2022-09-03T08:59:22;94056.13;;;17.32;75.02
71107;BME280;58763;47.982;11.516;2022-09-03T09:05:08;94044.19;;;17.65;74.40
71107;BME280;58763;47.982;11.516;2022-09-03T09:10:28;94045.63;;;18.04;70.79
71107;BME280;58763;47.982;11.516;2022-09-03T09:15:47;94051.13;;;18.37;70.50
71107;BME280;58763;47.982;11.516;2022-09-03T09:18:24;94053.38;;;18.55;69.31
71107;BME280;58763;47.982;11.516;2022-09-03T09:21:14;94046.47;;;18.70;70.33
71107;BME280;58763;47.982;11.516;2022-09-03T09:23:44;94039.19;;;18.86;69.88
71107;BME280;58763;47.982;11.516;2022-09-03T09:26:13;94039.88;;;18.95;66.25
71107;BME280;58763;47.982;11.516;2022-09-03T09:28:41;94045.06;;;19.33;68.45
71107;BME280;58763;47.982;11.516;2022-09-03T09:31:11;94045.41;;;19.56;65.95
71107;BME280;58763;47.982;11.516;2022-09-03T09:33:39;94048.06;;;19.40;63.99
71107;BME280;58763;47.982;11.516;2022-09-03T09:36:10;94043.59;;;19.48;64.91
71107;BME280;58763;47.982;11.516;2022-09-03T09:38:38;94038.91;;;19.48;64.14
71107;BME280;58763;47.982;11.516;2022-09-03T09:41:16;94028.84;;;19.52;63.22
71107;BME280;58763;47.982;11.516;2022-09-03T09:43:44;94035.13;;;19.53;64.60
71107;BME280;58763;47.982;11.516;2022-09-03T09:46:36;94033.50;;;19.76;63.47
71107;BME280;58763;47.982;11.516;2022-09-03T09:49:07;94026.38;;;19.87;62.61
71107;BME280;58763;47.982;11.516;2022-09-03T09:51:47;94027.25;;;20.03;63.63
71107;BME280;58763;47.982;11.516;2022-09-03T09:54:14;94032.69;;;20.27;62.19
71107;BME280;58763;47.982;11.516;2022-09-03T09:56:45;94029.91;;;20.39;60.48
71107;BME280;58763;47.982;11.516;2022-09-03T09:59:12;94039.63;;;20.37;59.21
71107;BME280;58763;47.982;11.516;2022-09-03T10:01:43;94036.94;;;20.25;60.74
71107;BME280;58763;47.982;11.516;2022-09-03T10:04:21;94033.69;;;20.35;61.06
71107;BME280;58763;47.982;11.516;2022-09-03T10:06:53;94040.53;;;20.41;60.97
71107;BME280;58763;47.982;11.516;2022-09-03T10:09:28;94033.81;;;20.54;60.72
71107;BME280;58763;47.982;11.516;2022-09-03T10:12:16;94039.19;;;20.78;60.31
71107;BME280;58763;47.982;11.516;2022-09-03T10:15:04;94037.84;;;20.72;60.91
71107;BME280;58763;47.982;11.516;2022-09-03T10:17:42;94047.69;;;20.89;59.64
71107;BME280;58763;47.982;11.516;2022-09-03T10:23:23;94037.19;;;21.38;58.65
71107;BME280;58763;47.982;11.516;2022-09-03T10:25:58;94037.34;;;21.60;58.54
71107;BME280;58763;47.982;11.516;2022-09-03T10:28:33;94028.69;;;21.77;57.97
71107;BME280;58763;47.982;11.516;2022-09-03T10:31:50;94019.72;;;21.96;56.80
71107;BME280;58763;47.982;11.516;2022-09-03T10:34:02;94030.38;;;22.17;55.10
71107;BME280;58763;47.982;11.516;2022-09-03T10:36:37;94031.31;;;22.43;54.88
71107;BME280;58763;47.982;11.516;2022-09-03T10:39:39;94029.38;;;22.63;55.21
71107;BME280;58763;47.982;11.516;2022-09-03T10:45:07;94016.84;;;22.88;52.66
71107;BME280;58763;47.982;11.516;2022-09-03T10:47:48;94008.06;;;22.83;51.70
71107;BME280;58763;47.982;11.516;2022-09-03T10:50:26;94014.72;;;23.01;51.99
71107;BME280;58763;47.982;11.516;2022-09-03T10:55:45;93997.56;;;23.60;51.60
71107;BME280;58763;47.982;11.516;2022-09-03T11:01:23;94004.47;;;23.99;47.74
71107;BME280;58763;47.982;11.516;2022-09-03T11:06:27;94005.00;;;23.82;47.68
71107;BME280;58763;47.982;11.516;2022-09-03T11:11:35;94007.19;;;24.25;46.79
71107;BME280;58763;47.982;11.516;2022-09-03T11:14:11;94003.16;;;24.49;45.66
71107;BME280;58763;47.982;11.516;2022-09-03T11:16:42;93997.94;;;24.44;47.35
71107;BME280;58763;47.982;11.516;2022-09-03T11:19:12;93984.28;;;24.58;48.76
71107;BME280;58763;47.982;11.516;2022-09-03T11:21:41;93990.38;;;24.74;45.70
71107;BME280;58763;47.982;11.516;2022-09-03T11:24:44;93983.06;;;24.85;45.06
71107;BME280;58763;47.982;11.516;2022-09-03T11:27:19;93982.69;;;24.90;45.10
71107;BME280;58763;47.982;11.516;2022-09-03T11:30:01;93976.38;;;24.90;43.30
71107;BME280;58763;47.982;11.516;2022-09-03T11:32:46;93981.59;;;24.98;43.87
71107;BME280;58763;47.982;11.516;2022-09-03T11:35:43;93977.41;;;25.18;43.36
71107;BME280;58763;47.982;11.516;2022-09-03T11:41:13;93969.38;;;25.47;43.58
71107;BME280;58763;47.982;11.516;2022-09-03T11:43:41;93976.03;;;25.38;41.57
71107;BME280;58763;47.982;11.516;2022-09-03T11:46:26;93973.75;;;25.48;42.18
71107;BME280;58763;47.982;11.516;2022-09-03T11:48:54;93972.59;;;25.56;41.14
71107;BME280;58763;47.982;11.516;2022-09-03T11:56:48;93963.75;;;25.94;40.04
71107;BME280;58763;47.982;11.516;2022-09-03T11:59:24;93964.19;;;26.03;39.73
71107;BME280;58763;47.982;11.516;2022-09-03T12:02:21;93965.50;;;26.20;40.11
71107;BME280;58763;47.982;11.516;2022-09-03T12:05:26;93952.94;;;26.43;40.12
71107;BME280;58763;47.982;11.516;2022-09-03T12:10:33;93949.84;;;26.69;38.08
71107;BME280;58763;47.982;11.516;2022-09-03T12:13:11;93956.19;;;26.73;38.63
71107;BME280;58763;47.982;11.516;2022-09-03T12:18:22;93957.84;;;27.03;38.63
71107;BME280;58763;47.982;11.516;2022-09-03T12:23:39;93950.75;;;27.23;37.93
71107;BME280;58763;47.982;11.516;2022-09-03T12:26:12;93939.66;;;27.09;36.75
71107;BME280;58763;47.982;11.516;2022-09-03T12:28:47;93942.41;;;27.26;38.14
71107;BME280;58763;47.982;11.516;2022-09-03T12:31:19;93943.63;;;27.18;37.27
71107;BME280;58763;47.982;11.516;2022-09-03T12:36:34;93928.53;;;27.23;35.72
71107;BME280;58763;47.982;11.516;2022-09-03T12:39:20;93943.63;;;27.43;35.99
71107;BME280;58763;47.982;11.516;2022-09-03T12:42:07;93939.66;;;27.58;37.50
71107;BME280;58763;47.982;11.516;2022-09-03T12:49:44;93937.66;;;27.62;36.15
71107;BME280;58763;47.982;11.516;2022-09-03T12:54:52;93920.59;;;27.67;35.92
71107;BME280;58763;47.982;11.516;2022-09-03T12:57:30;93916.22;;;27.66;35.10
71107;BME280;58763;47.982;11.516;2022-09-03T13:00:03;93915.84;;;27.64;35.81
71107;BME280;58763;47.982;11.516;2022-09-03T13:02:45;93901.53;;;27.66;37.07
71107;BME280;58763;47.982;11.516;2022-09-03T13:05:17;93900.38;;;27.63;35.80
71107;BME280;58763;47.982;11.516;2022-09-03T13:07:53;93894.03;;;27.52;36.73
71107;BME280;58763;47.982;11.516;2022-09-03T13:10:40;93902.38;;;27.56;37.55
71107;BME280;58763;47.982;11.516;2022-09-03T13:13:47;93899.19;;;27.61;38.04
71107;BME280;58763;47.982;11.516;2022-09-03T13:27:18;93919.59;;;28.44;36.56
71107;BME280;58763;47.982;11.516;2022-09-03T13:41:08;93926.16;;;27.32;36.85
71107;BME280;58763;47.982;11.516;2022-09-03T13:44:07;93911.88;;;27.16;38.64
71107;BME280;58763;47.982;11.516;2022-09-03T13:49:20;93918.59;;;27.01;38.96
71107;BME280;58763;47.982;11.516;2022-09-03T13:52:12;93921.38;;;26.94;39.88
71107;BME280;58763;47.982;11.516;2022-09-03T13:54:51;93930.09;;;26.89;40.43
71107;BME280;58763;47.982;11.516;2022-09-03T13:57:43;93931.69;;;26.79;40.60
71107;BME280;58763;47.982;11.516;2022-09-03T14:00:12;93931.59;;;26.61;41.03
71107;BME280;58763;47.982;11.516;2022-09-03T14:02:44;93927.59;;;26.45;42.23
71107;BME280;58763;47.982;11.516;2022-09-03T14:08:10;93940.22;;;26.32;42.39
71107;BME280;58763;47.982;11.516;2022-09-03T14:10:55;93946.50;;;26.18;41.97
71107;BME280;58763;47.982;11.516;2022-09-03T14:13:37;93959.16;;;26.19;42.31
71107;BME280;58763;47.982;11.516;2022-09-03T14:16:44;93990.75;;;26.04;42.92
71107;BME280;58763;47.982;11.516;2022-09-03T14:19:47;94036.63;;;23.35;47.25
71107;BME280;58763;47.982;11.516;2022-09-03T14:22:47;94040.88;;;22.30;51.96
71107;BME280;58763;47.982;11.516;2022-09-03T14:25:20;94050.75;;;21.15;55.88
71107;BME280;58763;47.982;11.516;2022-09-03T14:27:47;94051.19;;;19.90;59.45
71107;BME280;58763;47.982;11.516;2022-09-03T14:33:15;94073.81;;;17.84;65.32
71107;BME280;58763;47.982;11.516;2022-09-03T14:35:58;94078.00;;;17.32;68.43
71107;BME280;58763;47.982;11.516;2022-09-03T14:49:52;94094.38;;;17.32;69.53
71107;BME280;58763;47.982;11.516;2022-09-03T14:52:39;94104.63;;;17.35;69.05
71107;BME280;58763;47.982;11.516;2022-09-03T15:00:16;94123.50;;;17.86;69.67
71107;BME280;58763;47.982;11.516;2022-09-03T15:05:41;94130.69;;;17.99;69.62
71107;BME280;58763;47.982;11.516;2022-09-03T15:08:36;94128.88;;;18.03;69.04
71107;BME280;58763;47.982;11.516;2022-09-03T15:11:17;94118.31;;;17.93;69.78
71107;BME280;58763;47.982;11.516;2022-09-03T15:14:05;94117.44;;;17.80;69.45
71107;BME280;58763;47.982;11.516;2022-09-03T15:19:33;94110.84;;;17.81;70.59
71107;BME280;58763;47.982;11.516;2022-09-03T15:22:10;94106.16;;;17.82;70.54
71107;BME280;58763;47.982;11.516;2022-09-03T15:27:45;94112.91;;;17.84;70.83
71107;BME280;58763;47.982;11.516;2022-09-03T15:30:16;94112.19;;;17.67;71.94
71107;BME280;58763;47.982;11.516;2022-09-03T15:35:41;94123.88;;;17.47;72.97
71107;BME280;58763;47.982;11.516;2022-09-03T15:38:37;94122.59;;;17.06;74.33
71107;BME280;58763;47.982;11.516;2022-09-03T15:41:17;94126.09;;;17.15;74.78
71107;BME280;58763;47.982;11.516;2022-09-03T15:43:48;94124.34;;;17.11;75.31
71107;BME280;58763;47.982;11.516;2022-09-03T15:46:36;94125.78;;;17.17;75.35
71107;BME280;58763;47.982;11.516;2022-09-03T15:49:19;94120.78;;;17.19;75.47
71107;BME280;58763;47.982;11.516;2022-09-03T15:52:09;94110.84;;;17.14;75.81
71107;BME280;58763;47.982;11.516;2022-09-03T15:54:47;94117.59;;;17.17;76.59
71107;BME280;58763;47.982;11.516;2022-09-03T16:00:19;94121.44;;;17.24;76.13
71107;BME280;58763;47.982;11.516;2022-09-03T16:05:20;94116.72;;;17.34;76.51
71107;BME280;58763;47.982;11.516;2022-09-03T16:08:09;94104.97;;;17.33;76.05